createdAt,value
2023-04-11T00:00:11.408Z,98587.69
2023-04-11T00:02:41.569Z,98587.78
2023-04-11T00:05:30.600Z,98580.38
2023-04-11T00:08:16.942Z,98473.56
2023-04-11T00:10:57.278Z,98560.63
2023-04-11T00:13:53.845Z,98556.94
2023-04-11T00:16:47.240Z,98564.66
2023-04-11T00:19:55.288Z,98561.38
2023-04-11T00:22:43.382Z,98550.88
2023-04-11T00:25:10.401Z,98544.97
2023-04-11T00:27:37.401Z,98547.03
2023-04-11T00:30:07.137Z,98535.97
2023-04-11T00:32:34.183Z,98539.47
2023-04-11T00:35:01.128Z,98538.13
2023-04-11T00:37:28.041Z,98528.41
2023-04-11T00:39:56.167Z,98528.28
2023-04-11T00:42:23.345Z,98517.59
2023-04-11T00:44:50.552Z,98511.28
2023-04-11T00:47:17.458Z,98521.16
2023-04-11T00:49:44.669Z,98522.53
2023-04-11T00:52:13.039Z,98512.84
2023-04-11T00:54:40.654Z,98526.81
2023-04-11T00:57:08.581Z,98520.19
2023-04-11T00:59:35.801Z,98513.00
2023-04-11T01:02:02.760Z,98510.06
2023-04-11T01:04:30.149Z,98517.00
2023-04-11T01:07:19.423Z,98489.22
2023-04-11T01:10:14.149Z,98507.03
2023-04-11T01:13:02.360Z,98505.97
2023-04-11T01:15:49.764Z,98508.66
2023-04-11T01:18:36.711Z,98495.09
2023-04-11T01:21:23.302Z,98493.41
2023-04-11T01:24:03.919Z,98488.56
2023-04-11T01:26:31.227Z,98490.56
2023-04-11T01:28:58.266Z,98486.63
2023-04-11T01:31:25.229Z,98483.25
2023-04-11T01:33:52.128Z,98479.41
2023-04-11T01:36:19.380Z,98473.91
2023-04-11T01:38:46.342Z,98476.75
2023-04-11T01:41:16.582Z,98471.63
2023-04-11T01:43:44.482Z,98485.13
2023-04-11T01:46:11.836Z,98484.00
2023-04-11T01:48:39.288Z,98487.97
2023-04-11T01:51:07.719Z,98477.81
2023-04-11T01:53:34.667Z,98474.94
2023-04-11T01:56:01.663Z,98478.75
2023-04-11T01:58:28.581Z,98466.38
2023-04-11T02:00:55.571Z,98461.78
2023-04-11T02:03:23.164Z,98455.63
2023-04-11T02:05:50.311Z,98452.63
2023-04-11T02:08:17.250Z,98449.13
2023-04-11T02:10:44.193Z,98453.09
2023-04-11T02:13:11.150Z,98448.38
2023-04-11T02:15:38.174Z,98441.88
2023-04-11T02:18:07.286Z,98435.53
2023-04-11T02:20:34.190Z,98433.00
2023-04-11T02:23:04.842Z,98424.47
2023-04-11T02:25:31.761Z,98425.81
2023-04-11T02:27:58.662Z,98431.50
2023-04-11T02:30:25.823Z,98413.06
2023-04-11T02:32:53.157Z,98410.03
2023-04-11T02:35:20.236Z,98418.41
2023-04-11T02:37:47.139Z,98423.00
2023-04-11T02:40:14.080Z,98417.38
2023-04-11T02:42:43.430Z,98416.50
2023-04-11T02:45:11.932Z,98417.47
2023-04-11T02:47:39.957Z,98409.56
2023-04-11T02:50:07.585Z,98408.22
2023-04-11T02:52:34.643Z,98413.41
2023-04-11T02:55:01.741Z,98402.66
2023-04-11T02:57:28.688Z,98405.13
2023-04-11T02:59:55.548Z,98403.44
2023-04-11T03:02:23.877Z,98408.16
2023-04-11T03:04:51.519Z,98410.88
2023-04-11T03:07:18.417Z,98401.25
2023-04-11T03:09:45.369Z,98396.91
2023-04-11T03:12:12.340Z,98399.84
2023-04-11T03:14:39.217Z,98407.47
2023-04-11T03:17:06.355Z,98404.75
2023-04-11T03:19:33.284Z,98395.75
2023-04-11T03:22:01.850Z,98365.28
2023-04-11T03:24:28.756Z,98371.31
2023-04-11T03:26:56.222Z,98383.03
2023-04-11T03:29:23.393Z,98384.38
2023-04-11T03:31:51.073Z,98387.75
2023-04-11T03:34:18.388Z,98377.38
2023-04-11T03:36:45.304Z,98379.09
2023-04-11T03:39:12.219Z,98375.59
2023-04-11T03:41:39.259Z,98363.50
2023-04-11T03:44:06.228Z,98362.13
2023-04-11T03:46:33.190Z,98359.94
2023-04-11T03:49:00.140Z,98349.41
2023-04-11T03:51:27.370Z,98358.25
2023-04-11T03:53:54.386Z,98349.03
2023-04-11T03:56:21.711Z,98352.31
2023-04-11T03:58:48.607Z,98353.84
2023-04-11T04:01:15.554Z,98353.16
2023-04-11T04:03:42.848Z,98353.31
2023-04-11T04:06:10.207Z,98348.97
2023-04-11T04:08:37.076Z,98342.97
2023-04-11T04:11:04.094Z,98277.09
2023-04-11T04:13:31.168Z,98334.22
2023-04-11T04:15:58.631Z,98343.25
2023-04-11T04:18:25.750Z,98342.78
2023-04-11T04:20:52.865Z,98337.16
2023-04-11T04:23:19.765Z,98328.84
2023-04-11T04:25:51.470Z,98337.25
2023-04-11T04:28:22.723Z,98323.91
2023-04-11T04:30:50.440Z,98321.53
2023-04-11T04:33:18.929Z,98313.53
2023-04-11T04:35:45.903Z,98297.94
2023-04-11T04:38:18.140Z,98316.84
2023-04-11T04:40:45.284Z,98306.91
2023-04-11T04:43:18.915Z,98304.63
2023-04-11T04:45:46.039Z,98287.56
2023-04-11T04:48:17.510Z,98270.66
2023-04-11T04:50:45.916Z,98294.38
2023-04-11T04:53:12.934Z,98298.63
2023-04-11T04:55:39.879Z,98293.03
2023-04-11T04:58:06.792Z,98270.44
2023-04-11T05:00:33.849Z,98284.88
2023-04-11T05:03:00.939Z,98275.63
2023-04-11T05:05:27.881Z,98281.66
2023-04-11T05:07:54.781Z,98272.38
2023-04-11T05:10:21.712Z,98272.56
2023-04-11T05:12:48.627Z,98275.50
2023-04-11T05:15:15.697Z,98273.56
2023-04-11T05:17:43.142Z,98265.94
2023-04-11T05:20:10.743Z,98270.09
2023-04-11T05:22:38.283Z,98258.94
2023-04-11T05:25:06.056Z,98250.03
2023-04-11T05:27:32.928Z,98246.50
2023-04-11T05:30:01.469Z,98246.47
2023-04-11T05:32:28.505Z,98240.78
2023-04-11T05:34:59.053Z,98242.03
2023-04-11T05:37:26.494Z,98234.69
2023-04-11T05:39:53.492Z,98221.03
2023-04-11T05:42:20.470Z,98234.72
2023-04-11T05:44:47.397Z,98224.84
2023-04-11T05:47:14.358Z,98217.81
2023-04-11T05:49:41.381Z,98214.63
2023-04-11T05:52:08.364Z,98210.50
2023-04-11T05:54:37.086Z,98204.69
2023-04-11T05:57:04.512Z,98191.50
2023-04-11T05:59:32.156Z,98169.19
2023-04-11T06:01:59.631Z,98144.28
2023-04-11T06:04:26.951Z,98171.72
2023-04-11T06:06:54.336Z,98173.56
2023-04-11T06:09:21.375Z,98167.25
2023-04-11T06:11:48.252Z,98172.66
2023-04-11T06:14:15.286Z,98168.94
2023-04-11T06:16:42.774Z,98175.63
2023-04-11T06:19:09.738Z,98170.09
2023-04-11T06:21:36.625Z,98170.91
2023-04-11T06:24:08.444Z,98170.97
2023-04-11T06:26:35.427Z,98160.59
2023-04-11T06:29:06.739Z,98173.81
2023-04-11T06:31:34.427Z,98154.00
2023-04-11T06:34:02.275Z,98153.16
2023-04-11T06:36:30.505Z,98147.22
2023-04-11T06:38:57.492Z,98148.34
2023-04-11T06:41:24.581Z,98155.50
2023-04-11T06:43:51.583Z,98154.00
2023-04-11T06:46:18.622Z,98153.47
2023-04-11T06:48:45.657Z,98144.22
2023-04-11T06:51:12.653Z,98151.50
2023-04-11T06:53:39.581Z,98150.53
2023-04-11T06:56:07.135Z,98140.09
2023-04-11T06:58:34.025Z,98152.81
2023-04-11T07:01:02.166Z,98146.56
2023-04-11T07:03:31.240Z,98145.84
2023-04-11T07:05:58.522Z,98123.41
2023-04-11T07:08:25.558Z,98147.22
2023-04-11T07:10:52.671Z,98145.06
2023-04-11T07:13:21.526Z,98126.84
2023-04-11T07:15:50.687Z,98129.59
2023-04-11T07:18:17.772Z,98128.72
2023-04-11T07:20:44.817Z,98120.91
2023-04-11T07:23:11.851Z,98124.94
2023-04-11T07:25:39.603Z,98118.53
2023-04-11T07:28:09.533Z,98119.88
2023-04-11T07:30:36.688Z,98109.97
2023-04-11T07:33:04.429Z,98123.28
2023-04-11T07:35:33.875Z,98118.94
2023-04-11T07:38:01.768Z,98113.41
2023-04-11T07:40:28.995Z,98105.44
2023-04-11T07:42:55.944Z,98110.31
2023-04-11T07:45:23.061Z,98110.91
2023-04-11T07:47:50.055Z,98098.34
2023-04-11T07:50:17.000Z,98091.66
2023-04-11T07:52:43.962Z,98087.56
2023-04-11T07:55:11.293Z,98083.56
2023-04-11T07:57:38.271Z,98066.97
2023-04-11T08:00:05.749Z,98037.38
2023-04-11T08:02:33.405Z,98055.81
2023-04-11T08:05:00.699Z,98056.50
2023-04-11T08:07:28.122Z,98053.91
2023-04-11T08:09:55.111Z,98059.00
2023-04-11T08:12:22.324Z,98052.69
2023-04-11T08:14:49.257Z,98057.47
2023-04-11T08:17:27.187Z,98059.31
2023-04-11T08:19:57.921Z,98059.00
2023-04-11T08:22:24.874Z,98041.94
2023-04-11T08:24:52.443Z,98053.41
2023-04-11T08:27:19.340Z,98054.22
2023-04-11T08:29:46.205Z,98052.19
2023-04-11T08:32:13.126Z,98042.44
2023-04-11T08:34:40.036Z,98029.09
2023-04-11T08:37:08.371Z,98038.34
2023-04-11T08:39:35.239Z,98032.28
2023-04-11T08:42:02.527Z,98018.72
2023-04-11T08:44:29.545Z,98025.50
2023-04-11T08:46:56.467Z,98022.06
2023-04-11T08:49:23.424Z,98012.75
2023-04-11T08:51:54.257Z,98015.34
2023-04-11T08:54:21.432Z,98005.16
2023-04-11T08:56:48.334Z,98012.38
2023-04-11T08:59:15.236Z,98008.75
2023-04-11T09:01:42.858Z,98008.28
2023-04-11T09:04:11.670Z,98013.31
2023-04-11T09:06:40.483Z,98006.16
2023-04-11T09:09:08.435Z,97993.31
2023-04-11T09:11:56.345Z,98004.13
2023-04-11T09:14:27.272Z,97986.72
2023-04-11T09:16:57.006Z,97989.47
2023-04-11T09:19:29.464Z,97979.72
2023-04-11T09:22:01.588Z,97981.19
2023-04-11T09:24:33.935Z,97971.72
2023-04-11T09:27:28.156Z,97962.91
2023-04-11T09:29:55.082Z,97954.03
2023-04-11T09:32:35.307Z,97964.72
2023-04-11T09:35:12.451Z,97944.88
2023-04-11T09:37:50.598Z,97947.84
2023-04-11T09:40:20.356Z,97943.16
2023-04-11T09:42:48.863Z,97933.28
2023-04-11T09:45:15.810Z,97938.38
2023-04-11T09:47:44.586Z,97937.63
2023-04-11T09:50:12.961Z,97918.81
2023-04-11T09:52:43.816Z,97920.91
2023-04-11T09:55:21.520Z,97915.63
2023-04-11T09:57:50.226Z,97927.03
2023-04-11T10:00:22.608Z,97910.94
2023-04-11T10:02:55.016Z,97907.41
2023-04-11T10:05:27.246Z,97906.22
2023-04-11T10:08:02.712Z,97906.03
2023-04-11T10:10:30.352Z,97885.66
2023-04-11T10:12:57.270Z,97889.78
2023-04-11T10:15:24.329Z,97889.47
2023-04-11T10:18:11.883Z,97890.72
2023-04-11T10:20:47.260Z,97881.94
2023-04-11T10:23:15.138Z,97882.84
2023-04-11T10:25:51.197Z,97886.09
2023-04-11T10:28:40.916Z,97875.97
2023-04-11T10:31:15.929Z,97867.66
2023-04-11T10:34:14.169Z,97878.75
2023-04-11T10:37:08.896Z,97873.97
2023-04-11T10:39:53.686Z,97868.09
2023-04-11T10:42:57.659Z,97865.91
2023-04-11T10:45:27.447Z,97869.22
2023-04-11T10:47:57.580Z,97866.03
2023-04-11T10:50:27.338Z,97861.97
2023-04-11T10:52:58.995Z,97854.31
2023-04-11T10:55:27.695Z,97857.84
2023-04-11T10:58:14.265Z,97846.69
2023-04-11T11:00:48.316Z,97855.09
2023-04-11T11:03:23.483Z,97848.50
2023-04-11T11:06:03.916Z,97850.38
2023-04-11T11:08:33.929Z,97828.66
2023-04-11T11:11:09.898Z,97830.78
2023-04-11T11:13:40.379Z,97822.78
2023-04-11T11:16:14.816Z,97820.19
2023-04-11T11:18:45.450Z,97816.13
2023-04-11T11:21:17.016Z,97810.31
2023-04-11T11:23:55.662Z,97807.81
2023-04-11T11:26:23.186Z,97799.19
2023-04-11T11:28:50.151Z,97815.91
2023-04-11T11:31:17.292Z,97809.00
2023-04-11T11:33:44.289Z,97802.16
2023-04-11T11:36:11.981Z,97804.66
2023-04-11T11:38:39.397Z,97811.41
2023-04-11T11:41:06.995Z,97802.59
2023-04-11T11:43:37.216Z,97806.13
2023-04-11T11:46:10.233Z,97795.78
2023-04-11T11:48:37.460Z,97804.47
2023-04-11T11:51:04.726Z,97810.22
2023-04-11T11:53:31.661Z,97805.84
2023-04-11T11:55:59.610Z,97804.13
2023-04-11T11:58:26.729Z,97804.50
2023-04-11T12:00:54.557Z,97808.50
2023-04-11T12:03:24.737Z,97812.81
2023-04-11T12:05:56.309Z,97815.28
2023-04-11T12:08:25.225Z,97811.31
2023-04-11T12:10:52.731Z,97812.41
2023-04-11T12:13:20.927Z,97807.16
2023-04-11T12:16:01.747Z,97806.19
2023-04-11T12:18:29.109Z,97808.34
2023-04-11T12:20:56.299Z,97800.06
2023-04-11T12:23:23.495Z,97797.03
2023-04-11T12:25:50.834Z,97800.31
2023-04-11T12:28:17.777Z,97789.72
2023-04-11T12:30:44.756Z,97786.00
2023-04-11T12:33:11.752Z,97784.38
2023-04-11T12:35:38.732Z,97786.47
2023-04-11T12:38:06.868Z,97773.78
2023-04-11T12:40:33.937Z,97784.66
2023-04-11T12:43:01.182Z,97777.69
2023-04-11T12:45:28.167Z,97770.03
2023-04-11T12:47:55.252Z,97769.25
2023-04-11T12:50:24.275Z,97769.63
2023-04-11T12:52:51.808Z,97764.88
2023-04-11T12:55:18.903Z,97762.31
2023-04-11T12:57:46.189Z,97754.66
2023-04-11T13:00:14.044Z,97755.63
2023-04-11T13:02:44.623Z,97739.91
2023-04-11T13:05:15.567Z,97747.22
2023-04-11T13:07:45.417Z,97742.38
2023-04-11T13:10:14.310Z,97746.13
2023-04-11T13:12:45.371Z,97726.84
2023-04-11T13:15:14.497Z,97687.63
2023-04-11T13:17:41.600Z,97728.78
2023-04-11T13:20:10.798Z,97723.34
2023-04-11T13:22:38.831Z,97728.09
2023-04-11T13:25:07.110Z,97719.13
2023-04-11T13:27:35.161Z,97707.31
2023-04-11T13:30:03.850Z,97708.81
2023-04-11T13:32:31.425Z,97710.19
2023-04-11T13:34:58.577Z,97703.34
2023-04-11T13:37:25.444Z,97701.47
2023-04-11T13:39:52.356Z,97705.56
2023-04-11T13:42:19.265Z,97698.13
2023-04-11T13:44:46.194Z,97691.47
2023-04-11T13:47:13.153Z,97684.47
2023-04-11T13:49:40.025Z,97674.78
2023-04-11T13:52:06.998Z,97671.88
2023-04-11T13:54:33.913Z,97680.91
2023-04-11T13:57:01.274Z,97676.56
2023-04-11T13:59:28.327Z,97670.81
2023-04-11T14:01:55.260Z,97662.81
2023-04-11T14:04:22.737Z,97669.06
2023-04-11T14:06:49.810Z,97660.84
2023-04-11T14:09:16.772Z,97665.22
2023-04-11T14:11:43.819Z,97657.53
2023-04-11T14:14:10.887Z,97662.13
2023-04-11T14:16:37.836Z,97663.88
2023-04-11T14:19:04.791Z,97662.78
2023-04-11T14:21:32.032Z,97656.72
2023-04-11T14:23:59.425Z,97661.59
2023-04-11T14:26:26.858Z,97665.38
2023-04-11T14:28:54.063Z,97658.81
2023-04-11T14:31:21.048Z,97659.00
2023-04-11T14:33:48.024Z,97665.28
2023-04-11T14:36:15.250Z,97627.94
2023-04-11T14:38:42.336Z,97653.75
2023-04-11T14:41:10.630Z,97660.84
2023-04-11T14:43:37.735Z,97659.50
2023-04-11T14:46:06.000Z,97658.19
2023-04-11T14:48:32.952Z,97663.94
2023-04-11T14:51:03.287Z,97664.69
2023-04-11T14:53:30.203Z,97659.69
2023-04-11T14:55:57.097Z,97667.28
2023-04-11T14:58:24.084Z,97668.03
2023-04-11T15:00:51.726Z,97645.69
2023-04-11T15:03:18.789Z,97676.09
2023-04-11T15:05:45.844Z,97678.53
2023-04-11T15:08:12.791Z,97677.81
2023-04-11T15:10:39.703Z,97677.91
2023-04-11T15:13:09.157Z,97686.63
2023-04-11T15:15:37.079Z,97693.06
2023-04-11T15:18:22.183Z,97708.81
2023-04-11T15:20:49.898Z,97701.16
2023-04-11T15:23:18.210Z,97712.53
2023-04-11T15:25:46.734Z,97697.53
2023-04-11T15:28:13.696Z,97703.81
2023-04-11T15:30:52.047Z,97711.97
2023-04-11T15:33:24.489Z,97712.75
2023-04-11T15:35:54.038Z,97704.50
2023-04-11T15:38:22.057Z,97729.69
2023-04-11T15:40:56.800Z,97724.97
2023-04-11T15:43:24.429Z,97729.59
2023-04-11T15:45:55.022Z,97721.59
2023-04-11T15:48:21.958Z,97730.66
2023-04-11T15:50:49.015Z,97729.00
2023-04-11T15:53:16.193Z,97740.22
2023-04-11T15:55:43.869Z,97744.41
2023-04-11T15:58:10.968Z,97739.50
2023-04-11T16:00:39.018Z,97747.09
2023-04-11T16:03:06.444Z,97750.41
2023-04-11T16:05:33.894Z,97742.34
2023-04-11T16:08:00.923Z,97749.03
2023-04-11T16:10:28.126Z,97749.09
2023-04-11T16:12:55.070Z,97746.91
2023-04-11T16:15:22.081Z,97744.50
2023-04-11T16:17:49.769Z,97744.88
2023-04-11T16:20:57.035Z,97751.28
2023-04-11T16:23:24.810Z,97747.19
2023-04-11T16:25:52.028Z,97752.19
2023-04-11T16:28:18.992Z,97749.59
2023-04-11T16:30:45.993Z,97746.97
2023-04-11T16:33:13.210Z,97753.41
2023-04-11T16:35:40.106Z,97748.50
2023-04-11T16:38:07.306Z,97727.44
2023-04-11T16:40:35.216Z,97749.25
2023-04-11T16:43:02.222Z,97679.84
2023-04-11T16:45:29.392Z,97741.41
2023-04-11T16:47:56.430Z,97741.25
2023-04-11T16:50:23.672Z,97740.59
2023-04-11T16:52:50.597Z,97749.97
2023-04-11T16:55:18.245Z,97742.25
2023-04-11T16:57:45.133Z,97721.19
2023-04-11T17:00:16.414Z,97741.88
2023-04-11T17:02:43.683Z,97738.22
2023-04-11T17:05:10.875Z,97746.31
2023-04-11T17:07:38.006Z,97723.16
2023-04-11T17:10:05.803Z,97739.75
2023-04-11T17:12:32.777Z,97743.06
2023-04-11T17:15:02.890Z,97743.09
2023-04-11T17:17:29.885Z,97736.44
2023-04-11T17:19:57.257Z,97748.69
2023-04-11T17:22:24.117Z,97742.28
2023-04-11T17:24:51.190Z,97751.41
2023-04-11T17:27:18.074Z,97743.53
2023-04-11T17:29:45.016Z,97752.22
2023-04-11T17:32:12.236Z,97750.13
2023-04-11T17:34:39.182Z,97769.34
2023-04-11T17:37:06.780Z,97788.97
2023-04-11T17:39:33.691Z,97784.41
2023-04-11T17:42:01.892Z,97788.06
2023-04-11T17:44:28.798Z,97797.16
2023-04-11T17:46:55.950Z,97744.47
2023-04-11T17:49:25.091Z,97804.63
2023-04-11T17:52:10.280Z,97816.94
2023-04-11T17:54:37.899Z,97820.34
2023-04-11T17:57:04.841Z,97827.16
2023-04-11T17:59:33.616Z,97830.06
2023-04-11T18:02:01.173Z,97839.50
2023-04-11T18:04:28.207Z,97831.00
2023-04-11T18:06:56.486Z,97839.59
2023-04-11T18:09:26.869Z,97835.69
2023-04-11T18:11:53.903Z,97829.00
2023-04-11T18:14:20.861Z,97818.22
2023-04-11T18:16:47.804Z,97837.50
2023-04-11T18:19:14.966Z,97838.66
2023-04-11T18:21:41.875Z,97840.47
2023-04-11T18:24:09.479Z,97840.47
2023-04-11T18:26:36.462Z,97849.16
2023-04-11T18:29:04.233Z,97849.69
2023-04-11T18:31:35.312Z,97855.66
2023-04-11T18:34:03.375Z,97864.97
2023-04-11T18:36:31.080Z,97862.25
2023-04-11T18:38:58.699Z,97873.00
2023-04-11T18:41:25.793Z,97867.84
2023-04-11T18:43:52.771Z,97864.53
2023-04-11T18:46:19.722Z,97864.69
2023-04-11T18:48:46.688Z,97884.63
2023-04-11T18:51:13.654Z,97871.84
2023-04-11T18:53:41.163Z,97884.19
2023-04-11T18:56:08.356Z,97877.31
2023-04-11T18:58:39.986Z,97885.78
2023-04-11T19:01:15.548Z,97892.41
2023-04-11T19:03:44.715Z,97899.28
2023-04-11T19:06:11.867Z,97899.44
2023-04-11T19:08:53.851Z,97896.50
2023-04-11T19:11:20.771Z,97894.84
2023-04-11T19:13:48.274Z,97902.44
2023-04-11T19:16:15.428Z,97904.31
2023-04-11T19:18:42.383Z,97898.94
2023-04-11T19:21:09.299Z,97898.53
2023-04-11T19:23:36.235Z,97893.69
2023-04-11T19:26:03.269Z,97888.19
2023-04-11T19:28:30.262Z,97895.22
2023-04-11T19:30:57.216Z,97894.41
2023-04-11T19:33:26.211Z,97898.19
2023-04-11T19:35:54.517Z,97899.38
2023-04-11T19:38:22.023Z,97900.28
2023-04-11T19:40:49.015Z,97898.31
2023-04-11T19:43:15.979Z,97897.28
2023-04-11T19:45:44.334Z,97896.44
2023-04-11T19:48:11.939Z,97904.06
2023-04-11T19:50:38.879Z,97887.38
2023-04-11T19:53:05.840Z,97894.47
2023-04-11T19:55:32.798Z,97904.50
2023-04-11T19:57:59.759Z,97895.63
2023-04-11T20:00:28.910Z,97906.75
2023-04-11T20:02:55.875Z,97901.13
2023-04-11T20:05:24.027Z,97876.34
2023-04-11T20:07:51.058Z,97904.81
2023-04-11T20:10:18.069Z,97883.97
2023-04-11T20:12:44.985Z,97891.59
2023-04-11T20:15:12.184Z,97902.44
2023-04-11T20:17:39.212Z,97904.28
2023-04-11T20:20:08.869Z,97898.47
2023-04-11T20:22:38.566Z,97893.44
2023-04-11T20:25:11.946Z,97903.16
2023-04-11T20:27:39.737Z,97898.81
2023-04-11T20:30:09.853Z,97903.66
2023-04-11T20:32:37.633Z,97890.88
2023-04-11T20:35:05.391Z,97888.84
2023-04-11T20:37:34.654Z,97899.56
2023-04-11T20:40:02.493Z,97892.09
2023-04-11T20:42:31.897Z,97897.38
2023-04-11T20:45:07.068Z,97885.88
2023-04-11T20:47:34.294Z,97894.19
2023-04-11T20:50:04.260Z,97891.22
2023-04-11T20:52:32.926Z,97899.72
2023-04-11T20:55:00.515Z,97893.69
2023-04-11T20:57:30.168Z,97902.75
2023-04-11T20:59:58.253Z,97891.91
2023-04-11T21:02:26.415Z,97903.91
2023-04-11T21:04:54.472Z,97880.91
2023-04-11T21:07:21.704Z,97886.75
2023-04-11T21:09:49.716Z,97902.53
2023-04-11T21:12:16.639Z,97906.50
2023-04-11T21:14:43.589Z,97897.59
2023-04-11T21:17:10.790Z,97907.69
2023-04-11T21:19:38.199Z,97900.34
2023-04-11T21:22:05.814Z,97899.06
2023-04-11T21:24:34.432Z,97888.34
2023-04-11T21:27:02.207Z,97892.41
2023-04-11T21:29:29.574Z,97897.75
2023-04-11T21:31:56.545Z,97895.22
2023-04-11T21:34:23.524Z,97900.44
2023-04-11T21:36:50.743Z,97903.47
2023-04-11T21:39:17.684Z,97895.69
2023-04-11T21:41:44.654Z,97903.16
2023-04-11T21:44:13.467Z,97909.53
2023-04-11T21:46:40.818Z,97900.22
2023-04-11T21:49:07.828Z,97900.59
2023-04-11T21:51:34.820Z,97891.28
2023-04-11T21:54:04.623Z,97901.00
2023-04-11T21:56:31.553Z,97891.63
2023-04-11T21:58:58.475Z,97888.16
2023-04-11T22:01:25.439Z,97897.56
2023-04-11T22:03:52.586Z,97889.75
2023-04-11T22:06:19.732Z,97897.53
2023-04-11T22:08:50.713Z,97902.50
2023-04-11T22:11:18.362Z,97902.06
2023-04-11T22:13:46.889Z,97899.06
2023-04-11T22:16:14.456Z,97903.03
2023-04-11T22:18:47.490Z,97906.59
2023-04-11T22:21:21.760Z,97899.41
2023-04-11T22:23:56.228Z,97903.16
2023-04-11T22:26:34.269Z,97905.25
2023-04-11T22:29:06.026Z,97903.88
2023-04-11T22:31:38.610Z,97898.44
2023-04-11T22:34:10.342Z,97900.56
2023-04-11T22:36:37.461Z,97903.16
2023-04-11T22:39:08.567Z,97912.09
2023-04-11T22:41:38.876Z,97911.13
2023-04-11T22:44:10.878Z,97892.28
2023-04-11T22:46:39.157Z,97910.63
2023-04-11T22:49:06.852Z,97906.31
2023-04-11T22:51:33.776Z,97907.69
2023-04-11T22:54:01.361Z,97913.22
2023-04-11T22:56:28.369Z,97908.25
2023-04-11T22:58:55.602Z,97912.00
2023-04-11T23:01:22.731Z,97907.84
2023-04-11T23:03:49.973Z,97907.72
2023-04-11T23:06:17.540Z,97911.44
2023-04-11T23:08:44.449Z,97905.34
2023-04-11T23:11:11.397Z,97903.81
2023-04-11T23:13:38.365Z,97898.53
2023-04-11T23:16:06.283Z,97902.50
2023-04-11T23:18:33.204Z,97901.31
2023-04-11T23:21:00.143Z,97904.84
2023-04-11T23:23:28.076Z,97907.22
2023-04-11T23:25:54.985Z,97898.25
2023-04-11T23:28:21.899Z,97903.91
2023-04-11T23:30:49.020Z,97900.78
2023-04-11T23:33:16.645Z,97906.91
2023-04-11T23:35:43.630Z,97904.22
2023-04-11T23:38:10.797Z,97893.09
2023-04-11T23:40:38.575Z,97894.22
2023-04-11T23:43:05.559Z,97898.81
2023-04-11T23:45:33.356Z,97892.34
2023-04-11T23:48:00.373Z,97899.09
2023-04-11T23:50:27.662Z,97899.66
2023-04-11T23:52:55.126Z,97905.56
2023-04-11T23:55:22.186Z,97911.97
2023-04-11T23:57:49.851Z,97907.06
